Time;durP1;ratioP1;P1;durP2;ratioP2;P2;SDS_P1;SDS_P2;PMS_P1;PMS_P2;Temp;Humidity;BMP_temperature;BMP_pressure;BME280_temperature;BME280_humidity;BME280_pressure;Samples;Min_cycle;Max_cycle;Signal;HPM_P1;HPM_P2
2021/12/25 00:00:41;;;;;;;;;;;;;;;;;;5019780;28;1173;-86
2021/12/25 00:03:06;;;;;;;;;;;;;;;;;;5019663;28;1275;-86
2021/12/25 00:05:31;;;;;;;;;;;;;;;;;;5019685;28;1203;-86
2021/12/25 00:07:56;;;;;;;;;;;;;;;;;;5019327;28;1224;-86
2021/12/25 00:10:21;;;;;;;;;;;;;;;;;;5018546;28;1805;-86
2021/12/25 00:12:48;;;;;;;;;;;;;;;;;;5017624;28;1961;-86
2021/12/25 00:15:13;;;;;;;;;;;;;;;;;;5017351;28;1232;-86
2021/12/25 00:17:38;;;;;;;;;;;;;;;;;;5017612;28;1161;-86
2021/12/25 00:20:03;;;;;;;;;;;;;;;;;;5017667;28;1789;-86
2021/12/25 00:22:28;;;;;;;;;;;;;;;;;;5017483;28;1427;-85
2021/12/25 00:24:53;;;;;;;;;;;;;;;;;;5002191;28;1261;-85
2021/12/25 00:34:36;;;;;;;;;;;;;;;;;;5035930;28;1969;-86
2021/12/25 00:37:01;;;;;;;;;;;;;;;;;;5017542;28;1192;-86
2021/12/25 00:39:29;;;;;;;;;;;;;;;;;;5015545;28;1687;-86
2021/12/25 00:41:54;;;;;;;;;;;;;;;;;;5018392;28;1654;-86
2021/12/25 00:44:19;;;;;;;;;;;;;;;;;;5018486;28;1294;-86
2021/12/25 00:46:44;;;;;;;;;;;;;;;;;;5018165;28;1374;-85
2021/12/25 00:49:09;;;;;;;;;;;;;;;;;;5017689;28;1202;-85
2021/12/25 00:51:34;;;;;;;;;;;;;;;;;;5017980;28;1310;-85
2021/12/25 00:54:00;;;;;;;;;;;;;;;;;;5034795;28;1890;-86
2021/12/25 00:56:25;;;;;;;;;;;;;;;;;;5017509;28;1248;-86
2021/12/25 00:58:50;;;;;;;;;;;;;;;;;;5034980;28;1143;-86
2021/12/25 01:01:15;;;;;;;;;;;;;;;;;;5035590;28;841;-86
2021/12/25 01:03:40;;;;;;;;;;;;;;;;;;5017548;28;1236;-86
2021/12/25 01:06:05;;;;;;;;;;;;;;;;;;5018428;28;1729;-85
2021/12/25 01:08:30;;;;;;;;;;;;;;;;;;5035346;28;1313;-86
2021/12/25 01:10:55;;;;;;;;;;;;;;;;;;5018499;28;1444;-86
2021/12/25 01:13:28;;;;;;;;;;;;;;;;;;5018520;28;1894;-87
2021/12/25 01:18:59;;;;;;;;;;;;;;;;;;5037328;28;1066;-87
2021/12/25 01:32:22;;;;;;;;;;;;;;;;;;5035954;28;880;-85
2021/12/25 01:48:02;;;;;;;;;;;;;;;;;;5023926;28;1305;-85
2021/12/25 01:50:27;;;;;;;;;;;;;;;;;;5007055;28;1710;-85
2021/12/25 01:52:52;;;;;;;;;;;;;;;;;;5039693;28;1917;-86
2021/12/25 01:55:17;;;;;;;;;;;;;;;;;;5021033;28;1354;-85
2021/12/25 01:57:42;;;;;;;;;;;;;;;;;;5021314;28;1335;-86
2021/12/25 02:00:07;;;;;;;;;;;;;;;;;;5021269;28;1296;-85
2021/12/25 02:02:32;;;;;;;;;;;;;;;;;;5015355;28;1479;-86
2021/12/25 02:04:58;;;;;;;;;;;;;;;;;;5014278;28;1321;-85
2021/12/25 02:07:23;;;;;;;;;;;;;;;;;;5020555;28;1201;-86
2021/12/25 02:09:48;;;;;;;;;;;;;;;;;;5020896;28;1258;-87
2021/12/25 02:12:15;;;;;;;;;;;;;;;;;;5020805;28;1718;-85
2021/12/25 02:14:42;;;;;;;;;;;;;;;;;;5020246;28;1953;-86
2021/12/25 02:17:18;;;;;;;;;;;;;;;;;;5020484;28;1278;-87
2021/12/25 02:19:49;;;;;;;;;;;;;;;;;;5020432;28;1680;-85
2021/12/25 02:22:14;;;;;;;;;;;;;;;;;;5021555;28;1327;-86
2021/12/25 02:24:39;;;;;;;;;;;;;;;;;;5038356;28;1719;-86
2021/12/25 02:27:04;;;;;;;;;;;;;;;;;;5020499;28;1197;-86
2021/12/25 02:29:29;;;;;;;;;;;;;;;;;;5020246;28;1169;-85
2021/12/25 02:31:54;;;;;;;;;;;;;;;;;;5038741;28;1821;-85
2021/12/25 02:34:19;;;;;;;;;;;;;;;;;;5038570;28;1965;-86
2021/12/25 02:36:44;;;;;;;;;;;;;;;;;;5021130;28;1232;-86
2021/12/25 02:39:09;;;;;;;;;;;;;;;;;;5020203;28;1226;-86
2021/12/25 02:41:34;;;;;;;;;;;;;;;;;;5019941;28;1311;-86
2021/12/25 02:43:59;;;;;;;;;;;;;;;;;;5020503;28;1299;-86
2021/12/25 02:46:25;;;;;;;;;;;;;;;;;;5021866;28;1205;-86
2021/12/25 02:48:52;;;;;;;;;;;;;;;;;;5021610;28;1714;-86
2021/12/25 02:51:17;;;;;;;;;;;;;;;;;;5039723;28;1211;-85
2021/12/25 02:53:42;;;;;;;;;;;;;;;;;;5039355;28;1969;-86
2021/12/25 02:56:07;;;;;;;;;;;;;;;;;;5022868;28;1224;-86
2021/12/25 02:58:32;;;;;;;;;;;;;;;;;;5041701;28;1062;-86
2021/12/25 03:00:57;;;;;;;;;;;;;;;;;;5022819;28;1303;-86
2021/12/25 03:03:23;;;;;;;;;;;;;;;;;;5022783;28;1213;-86
2021/12/25 03:05:48;;;;;;;;;;;;;;;;;;5039770;28;1079;-85
2021/12/25 03:08:13;;;;;;;;;;;;;;;;;;5025693;28;1511;-86
2021/12/25 03:10:38;;;;;;;;;;;;;;;;;;5024924;28;1303;-86
2021/12/25 03:16:08;;;;;;;;;;;;;;;;;;5040139;28;1639;-86
2021/12/25 03:18:26;;;;;;;;;;;;;;;;;;5036757;28;1142;-84
2021/12/25 03:20:51;;;;;;;;;;;;;;;;;;5023300;28;1342;-86
2021/12/25 03:23:16;;;;;;;;;;;;;;;;;;5030592;28;1374;-86
2021/12/25 03:25:41;;;;;;;;;;;;;;;;;;5018358;28;997;-85
2021/12/25 03:28:06;;;;;;;;;;;;;;;;;;5000165;28;1165;-86
2021/12/25 03:30:36;;;;;;;;;;;;;;;;;;5000423;28;1221;-85
2021/12/25 03:33:01;;;;;;;;;;;;;;;;;;5000406;28;1923;-86
2021/12/25 03:35:26;;;;;;;;;;;;;;;;;;5003341;28;1742;-86
2021/12/25 03:37:51;;;;;;;;;;;;;;;;;;5036786;28;1721;-85
2021/12/25 03:40:16;;;;;;;;;;;;;;;;;;5019664;28;1194;-86
2021/12/25 03:42:41;;;;;;;;;;;;;;;;;;5010490;28;1290;-85
2021/12/25 03:45:06;;;;;;;;;;;;;;;;;;5035580;28;1591;-86
2021/12/25 03:47:36;;;;;;;;;;;;;;;;;;5019314;28;1777;-86
2021/12/25 03:53:11;;;;;;;;;;;;;;;;;;5038381;28;1898;-85
2021/12/25 03:58:26;;;;;;;;;;;;;;;;;;5038757;28;624;-86
2021/12/25 04:00:58;;;;;;;;;;;;;;;;;;5022731;28;1408;-85
2021/12/25 04:03:42;;;;;;;;;;;;;;;;;;5022411;28;1288;-85
2021/12/25 04:06:09;;;;;;;;;;;;;;;;;;5040009;28;951;-85
2021/12/25 04:08:41;;;;;;;;;;;;;;;;;;5021552;28;1208;-85
2021/12/25 04:11:12;;;;;;;;;;;;;;;;;;5039709;28;1471;-84
2021/12/25 04:13:37;;;;;;;;;;;;;;;;;;5021783;28;1898;-86
2021/12/25 04:16:02;;;;;;;;;;;;;;;;;;5021074;28;1361;-85
2021/12/25 04:18:27;;;;;;;;;;;;;;;;;;5038716;28;1083;-85
2021/12/25 04:20:52;;;;;;;;;;;;;;;;;;5020499;28;1524;-86
2021/12/25 04:23:23;;;;;;;;;;;;;;;;;;5021461;28;1297;-85
2021/12/25 04:25:48;;;;;;;;;;;;;;;;;;5020554;28;1355;-85
2021/12/25 04:28:21;;;;;;;;;;;;;;;;;;5020317;28;1189;-85
2021/12/25 04:31:24;;;;;;;;;;;;;;;;;;5038924;28;873;-85
2021/12/25 05:01:43;;;;;;;;;;;;;;;;;;5018067;28;636;-86
2021/12/25 05:04:01;;;;;;;;;;;;;;;;;;5019627;28;1266;-86
2021/12/25 05:06:26;;;;;;;;;;;;;;;;;;5001706;28;1368;-85
2021/12/25 05:08:52;;;;;;;;;;;;;;;;;;5000731;28;1328;-86
2021/12/25 05:11:17;;;;;;;;;;;;;;;;;;5019253;28;802;-86
2021/12/25 05:13:43;;;;;;;;;;;;;;;;;;5001956;28;1907;-86
2021/12/25 05:16:09;;;;;;;;;;;;;;;;;;5001923;28;1220;-86
2021/12/25 05:18:34;;;;;;;;;;;;;;;;;;5001270;28;1229;-86
2021/12/25 05:20:59;;;;;;;;;;;;;;;;;;4999926;28;1161;-86
2021/12/25 05:23:24;;;;;;;;;;;;;;;;;;4999536;28;1387;-85
2021/12/25 05:25:49;;;;;;;;;;;;;;;;;;4999872;28;1189;-86
2021/12/25 05:28:23;;;;;;;;;;;;;;;;;;5000178;28;1233;-86
2021/12/25 05:30:48;;;;;;;;;;;;;;;;;;5000126;28;1217;-86
2021/12/25 05:33:13;;;;;;;;;;;;;;;;;;5017620;28;1930;-86
2021/12/25 05:35:38;;;;;;;;;;;;;;;;;;5031271;28;1840;-85
2021/12/25 05:38:04;;;;;;;;;;;;;;;;;;5020420;28;1324;-86
2021/12/25 05:40:29;;;;;;;;;;;;;;;;;;5017130;28;1496;-86
2021/12/25 05:42:54;;;;;;;;;;;;;;;;;;5002979;28;1347;-86
2021/12/25 05:45:19;;;;;;;;;;;;;;;;;;5010052;28;1605;-86
2021/12/25 05:47:44;;;;;;;;;;;;;;;;;;5038105;28;1759;-87
2021/12/25 05:50:09;;;;;;;;;;;;;;;;;;5023013;28;1862;-85
2021/12/25 05:52:34;;;;;;;;;;;;;;;;;;5021385;28;1227;-85
2021/12/25 05:54:59;;;;;;;;;;;;;;;;;;5011346;28;1930;-85
2021/12/25 05:57:24;;;;;;;;;;;;;;;;;;5003337;28;1197;-86
2021/12/25 05:59:49;;;;;;;;;;;;;;;;;;5009242;28;1413;-85
2021/12/25 06:02:15;;;;;;;;;;;;;;;;;;5025704;28;1280;-86
2021/12/25 06:04:40;;;;;;;;;;;;;;;;;;5007302;28;1395;-86
2021/12/25 06:07:05;;;;;;;;;;;;;;;;;;5012052;28;1824;-86
2021/12/25 06:09:30;;;;;;;;;;;;;;;;;;5017417;28;1474;-86
2021/12/25 06:11:55;;;;;;;;;;;;;;;;;;5008680;28;1285;-86
2021/12/25 06:14:21;;;;;;;;;;;;;;;;;;5030358;28;1883;-85
2021/12/25 06:16:46;;;;;;;;;;;;;;;;;;5035148;28;1584;-85
2021/12/25 06:19:11;;;;;;;;;;;;;;;;;;5038195;28;876;-86
2021/12/25 06:21:36;;;;;;;;;;;;;;;;;;5041683;28;1206;-85
2021/12/25 06:24:03;;;;;;;;;;;;;;;;;;5045197;28;1251;-85
2021/12/25 06:26:28;;;;;;;;;;;;;;;;;;5044902;28;1223;-86
2021/12/25 06:28:53;;;;;;;;;;;;;;;;;;5034361;28;1875;-85
2021/12/25 06:31:18;;;;;;;;;;;;;;;;;;5043327;28;984;-86
2021/12/25 06:33:43;;;;;;;;;;;;;;;;;;5024951;28;1940;-85
2021/12/25 06:36:08;;;;;;;;;;;;;;;;;;5042795;28;1020;-85
2021/12/25 06:38:33;;;;;;;;;;;;;;;;;;5038607;28;1275;-85
2021/12/25 06:40:58;;;;;;;;;;;;;;;;;;5006128;28;1236;-86
2021/12/25 06:43:23;;;;;;;;;;;;;;;;;;5004305;28;1266;-84
2021/12/25 06:45:48;;;;;;;;;;;;;;;;;;5012821;28;1343;-86
2021/12/25 06:48:13;;;;;;;;;;;;;;;;;;5036103;28;1279;-86
2021/12/25 06:50:38;;;;;;;;;;;;;;;;;;5003822;28;1442;-86
2021/12/25 06:53:03;;;;;;;;;;;;;;;;;;5002850;28;1887;-85
2021/12/25 06:55:28;;;;;;;;;;;;;;;;;;5016364;28;1525;-85
2021/12/25 06:57:55;;;;;;;;;;;;;;;;;;5041540;28;1885;-85
2021/12/25 07:00:21;;;;;;;;;;;;;;;;;;5037963;28;1681;-84
2021/12/25 07:02:46;;;;;;;;;;;;;;;;;;5023199;28;1353;-85
2021/12/25 07:05:11;;;;;;;;;;;;;;;;;;5029815;28;1124;-84
2021/12/25 07:07:36;;;;;;;;;;;;;;;;;;5008129;28;1251;-85
2021/12/25 07:10:01;;;;;;;;;;;;;;;;;;5011624;28;1314;-85
2021/12/25 07:12:28;;;;;;;;;;;;;;;;;;5028920;28;1357;-84
2021/12/25 07:14:53;;;;;;;;;;;;;;;;;;5015367;28;1886;-84
2021/12/25 07:17:18;;;;;;;;;;;;;;;;;;5038652;28;1599;-84
2021/12/25 07:19:43;;;;;;;;;;;;;;;;;;5021210;28;1503;-84
2021/12/25 07:22:08;;;;;;;;;;;;;;;;;;5022242;28;1518;-85
2021/12/25 07:24:33;;;;;;;;;;;;;;;;;;5023623;28;1762;-85
2021/12/25 07:27:03;;;;;;;;;;;;;;;;;;5021736;28;1674;-85
2021/12/25 07:29:28;;;;;;;;;;;;;;;;;;5012703;28;1530;-85
2021/12/25 07:31:53;;;;;;;;;;;;;;;;;;5022472;28;1797;-84
2021/12/25 07:34:18;;;;;;;;;;;;;;;;;;5023641;28;1960;-84
2021/12/25 07:36:43;;;;;;;;;;;;;;;;;;5023019;28;1251;-84
2021/12/25 07:39:08;;;;;;;;;;;;;;;;;;5024739;28;1495;-85
2021/12/25 07:41:33;;;;;;;;;;;;;;;;;;5019038;28;1472;-85
2021/12/25 07:44:00;;;;;;;;;;;;;;;;;;5015847;28;1718;-85
2021/12/25 07:46:26;;;;;;;;;;;;;;;;;;5040096;28;1785;-86
2021/12/25 07:48:51;;;;;;;;;;;;;;;;;;5017783;28;1404;-85
2021/12/25 07:51:16;;;;;;;;;;;;;;;;;;5017026;28;1180;-86
2021/12/25 07:53:44;;;;;;;;;;;;;;;;;;5008957;28;1971;-85
2021/12/25 07:56:09;;;;;;;;;;;;;;;;;;5022349;28;1464;-84
2021/12/25 07:58:34;;;;;;;;;;;;;;;;;;5010667;28;1405;-85
2021/12/25 08:01:00;;;;;;;;;;;;;;;;;;5007899;28;1303;-84
2021/12/25 08:03:25;;;;;;;;;;;;;;;;;;5020832;28;1324;-84
2021/12/25 08:05:50;;;;;;;;;;;;;;;;;;5007140;28;1374;-84
2021/12/25 08:08:15;;;;;;;;;;;;;;;;;;5020353;28;1324;-83
2021/12/25 08:10:40;;;;;;;;;;;;;;;;;;5026377;28;1462;-84
2021/12/25 08:13:05;;;;;;;;;;;;;;;;;;5020943;28;1882;-84
2021/12/25 08:15:30;;;;;;;;;;;;;;;;;;5021934;28;1415;-84
2021/12/25 08:17:55;;;;;;;;;;;;;;;;;;5021444;28;1287;-84
2021/12/25 08:20:21;;;;;;;;;;;;;;;;;;5020788;28;1349;-83
2021/12/25 08:22:46;;;;;;;;;;;;;;;;;;5021378;28;1742;-84
2021/12/25 08:25:11;;;;;;;;;;;;;;;;;;5020630;28;1896;-84
2021/12/25 08:27:36;;;;;;;;;;;;;;;;;;5021545;28;1239;-86
2021/12/25 08:30:01;;;;;;;;;;;;;;;;;;5019878;28;1635;-84
2021/12/25 08:32:26;;;;;;;;;;;;;;;;;;5026965;28;1370;-84
2021/12/25 08:34:51;;;;;;;;;;;;;;;;;;5038228;28;1886;-84
2021/12/25 08:37:16;;;;;;;;;;;;;;;;;;5019645;28;1337;-85
2021/12/25 08:39:41;;;;;;;;;;;;;;;;;;5014903;28;1757;-84
2021/12/25 08:42:06;;;;;;;;;;;;;;;;;;5010823;28;1781;-85
2021/12/25 08:44:53;;;;;;;;;;;;;;;;;;5032427;28;1467;-84
2021/12/25 08:47:18;;;;;;;;;;;;;;;;;;5021199;28;1317;-85
2021/12/25 08:49:43;;;;;;;;;;;;;;;;;;5020887;28;1463;-84
2021/12/25 08:52:08;;;;;;;;;;;;;;;;;;5017701;28;1460;-83
2021/12/25 08:54:33;;;;;;;;;;;;;;;;;;5024576;28;1945;-83
2021/12/25 08:56:58;;;;;;;;;;;;;;;;;;5011502;28;1367;-84
2021/12/25 08:59:23;;;;;;;;;;;;;;;;;;5017969;28;1567;-84
2021/12/25 09:01:48;;;;;;;;;;;;;;;;;;5016612;28;1327;-83
2021/12/25 09:04:13;;;;;;;;;;;;;;;;;;5018127;28;1551;-84
2021/12/25 09:06:39;;;;;;;;;;;;;;;;;;5046475;28;1530;-84
2021/12/25 09:09:05;;;;;;;;;;;;;;;;;;5031899;28;1809;-84
2021/12/25 09:11:30;;;;;;;;;;;;;;;;;;5019837;28;1503;-85
2021/12/25 09:13:55;;;;;;;;;;;;;;;;;;5025291;28;1894;-83
2021/12/25 09:16:21;;;;;;;;;;;;;;;;;;5026175;28;1240;-83
2021/12/25 09:18:46;;;;;;;;;;;;;;;;;;5042459;28;1257;-83
2021/12/25 09:21:12;;;;;;;;;;;;;;;;;;5009963;28;1750;-83
2021/12/25 09:23:37;;;;;;;;;;;;;;;;;;5014153;28;1786;-83
2021/12/25 09:26:02;;;;;;;;;;;;;;;;;;5019477;28;1299;-83
2021/12/25 09:28:27;;;;;;;;;;;;;;;;;;5018975;28;1242;-83
2021/12/25 09:30:52;;;;;;;;;;;;;;;;;;5015992;28;1292;-83
2021/12/25 09:33:17;;;;;;;;;;;;;;;;;;5007793;28;1937;-83
2021/12/25 09:35:42;;;;;;;;;;;;;;;;;;5019833;28;1441;-85
2021/12/25 09:38:07;;;;;;;;;;;;;;;;;;5035383;28;1412;-84
2021/12/25 09:40:32;;;;;;;;;;;;;;;;;;5020656;28;1275;-84
2021/12/25 09:42:57;;;;;;;;;;;;;;;;;;5030601;28;1650;-85
2021/12/25 09:45:22;;;;;;;;;;;;;;;;;;5019686;28;1583;-85
2021/12/25 09:47:47;;;;;;;;;;;;;;;;;;5007029;28;1255;-84
2021/12/25 09:50:12;;;;;;;;;;;;;;;;;;5012363;28;1757;-82
2021/12/25 09:52:38;;;;;;;;;;;;;;;;;;5018995;28;1310;-84
2021/12/25 09:55:03;;;;;;;;;;;;;;;;;;5034317;23;2063;-82
2021/12/25 09:57:29;;;;;;;;;;;;;;;;;;5036096;28;1634;-85
2021/12/25 09:59:54;;;;;;;;;;;;;;;;;;5036769;28;1317;-83
2021/12/25 10:02:19;;;;;;;;;;;;;;;;;;5034732;28;1472;-86
2021/12/25 10:04:44;;;;;;;;;;;;;;;;;;5036414;28;1369;-85
2021/12/25 10:07:09;;;;;;;;;;;;;;;;;;5035113;28;1745;-87
2021/12/25 10:09:34;;;;;;;;;;;;;;;;;;5036121;28;1494;-86
2021/12/25 10:11:59;;;;;;;;;;;;;;;;;;5036515;28;1780;-87
2021/12/25 10:14:25;;;;;;;;;;;;;;;;;;5036114;28;1953;-86
2021/12/25 10:16:50;;;;;;;;;;;;;;;;;;5034621;28;1644;-83
2021/12/25 10:19:15;;;;;;;;;;;;;;;;;;5034548;28;1292;-87
2021/12/25 10:21:40;;;;;;;;;;;;;;;;;;5017479;28;1572;-84
2021/12/25 10:24:06;;;;;;;;;;;;;;;;;;5025816;28;1277;-86
2021/12/25 10:26:31;;;;;;;;;;;;;;;;;;5036291;28;868;-86
2021/12/25 10:28:56;;;;;;;;;;;;;;;;;;5041057;28;820;-86
2021/12/25 10:31:21;;;;;;;;;;;;;;;;;;5034219;28;1573;-84
2021/12/25 10:33:50;;;;;;;;;;;;;;;;;;5034590;28;2050;-85
2021/12/25 10:36:15;;;;;;;;;;;;;;;;;;5035035;28;1346;-87
2021/12/25 10:38:41;;;;;;;;;;;;;;;;;;5036089;28;884;-85
2021/12/25 10:41:06;;;;;;;;;;;;;;;;;;5035716;28;1826;-89
2021/12/25 10:43:35;;;;;;;;;;;;;;;;;;5036010;28;868;-86
2021/12/25 10:46:00;;;;;;;;;;;;;;;;;;5035698;28;1166;-85
2021/12/25 10:48:25;;;;;;;;;;;;;;;;;;5035589;28;1085;-85
2021/12/25 10:50:50;;;;;;;;;;;;;;;;;;5035656;28;916;-87
2021/12/25 10:53:15;;;;;;;;;;;;;;;;;;5036835;28;1985;-86
2021/12/25 10:55:40;;;;;;;;;;;;;;;;;;5035183;28;1766;-83
2021/12/25 10:58:05;;;;;;;;;;;;;;;;;;5035228;28;1846;-84
2021/12/25 11:00:30;;;;;;;;;;;;;;;;;;5035588;28;1365;-84
2021/12/25 11:02:55;;;;;;;;;;;;;;;;;;5035532;28;2001;-83
2021/12/25 11:05:20;;;;;;;;;;;;;;;;;;5034799;28;1175;-86
2021/12/25 11:07:45;;;;;;;;;;;;;;;;;;5033513;28;1855;-85
2021/12/25 11:10:10;;;;;;;;;;;;;;;;;;5034939;28;1970;-85
2021/12/25 11:12:35;;;;;;;;;;;;;;;;;;5035225;28;821;-86
2021/12/25 11:15:00;;;;;;;;;;;;;;;;;;5035036;28;1955;-86
2021/12/25 11:17:26;;;;;;;;;;;;;;;;;;5035169;28;1103;-85
2021/12/25 11:19:59;;;;;;;;;;;;;;;;;;5035127;28;904;-81
2021/12/25 11:22:25;;;;;;;;;;;;;;;;;;5034926;28;848;-83
2021/12/25 11:24:50;;;;;;;;;;;;;;;;;;5033783;28;2122;-84
2021/12/25 11:27:15;;;;;;;;;;;;;;;;;;5033731;28;1798;-85
2021/12/25 11:29:41;;;;;;;;;;;;;;;;;;5032898;28;1599;-85
2021/12/25 11:32:06;;;;;;;;;;;;;;;;;;5033563;28;1355;-84
2021/12/25 11:34:31;;;;;;;;;;;;;;;;;;5034775;28;1930;-85
2021/12/25 11:36:56;;;;;;;;;;;;;;;;;;5033514;28;1308;-84
2021/12/25 11:39:21;;;;;;;;;;;;;;;;;;5034622;28;1756;-85
2021/12/25 11:41:46;;;;;;;;;;;;;;;;;;5034914;28;1018;-84
2021/12/25 11:44:11;;;;;;;;;;;;;;;;;;5034908;28;1279;-85
2021/12/25 11:46:37;;;;;;;;;;;;;;;;;;5035061;28;982;-85
2021/12/25 11:49:02;;;;;;;;;;;;;;;;;;5034441;28;1654;-84
2021/12/25 11:51:28;;;;;;;;;;;;;;;;;;5034890;28;1003;-84
2021/12/25 11:56:32;;;;;;;;;;;;;;;;;;5014956;28;986;-82
2021/12/25 11:58:57;;;;;;;;;;;;;;;;;;5015995;28;832;-85
2021/12/25 12:01:22;;;;;;;;;;;;;;;;;;5015728;28;1225;-88
2021/12/25 12:03:52;;;;;;;;;;;;;;;;;;5031165;28;1701;-84
2021/12/25 12:06:17;;;;;;;;;;;;;;;;;;5034331;28;1204;-82
2021/12/25 12:08:42;;;;;;;;;;;;;;;;;;5032877;28;1224;-85
2021/12/25 12:11:07;;;;;;;;;;;;;;;;;;5033152;28;1190;-85
2021/12/25 12:13:32;;;;;;;;;;;;;;;;;;5033274;28;1886;-86
2021/12/25 12:15:58;;;;;;;;;;;;;;;;;;5032792;28;1247;-84
2021/12/25 12:18:23;;;;;;;;;;;;;;;;;;5033333;28;853;-85
2021/12/25 12:20:48;;;;;;;;;;;;;;;;;;5034625;28;1055;-84
2021/12/25 12:23:20;;;;;;;;;;;;;;;;;;5035883;28;1689;-86
2021/12/25 12:25:59;;;;;;;;;;;;;;;;;;5034388;28;1815;-81
2021/12/25 12:28:24;;;;;;;;;;;;;;;;;;5032909;28;1414;-83
2021/12/25 12:30:49;;;;;;;;;;;;;;;;;;5032786;28;1667;-85
2021/12/25 12:33:14;;;;;;;;;;;;;;;;;;5032809;28;1906;-85
2021/12/25 12:35:39;;;;;;;;;;;;;;;;;;5034713;28;1311;-85
2021/12/25 12:38:04;;;;;;;;;;;;;;;;;;5034023;28;1708;-83
2021/12/25 12:40:31;;;;;;;;;;;;;;;;;;5034294;28;1523;-85
2021/12/25 12:42:58;;;;;;;;;;;;;;;;;;5033730;28;1772;-84
2021/12/25 12:45:24;;;;;;;;;;;;;;;;;;5033543;28;1613;-85
2021/12/25 12:47:49;;;;;;;;;;;;;;;;;;5032626;28;1209;-86
2021/12/25 12:50:14;;;;;;;;;;;;;;;;;;5033457;28;1677;-84
2021/12/25 12:52:40;;;;;;;;;;;;;;;;;;5033728;28;1669;-86
2021/12/25 12:55:05;;;;;;;;;;;;;;;;;;5031976;28;1898;-85
2021/12/25 12:57:31;;;;;;;;;;;;;;;;;;5032204;28;1183;-84
2021/12/25 12:59:56;;;;;;;;;;;;;;;;;;5033093;28;1716;-87
2021/12/25 13:02:21;;;;;;;;;;;;;;;;;;5033353;28;1684;-86
2021/12/25 13:04:46;;;;;;;;;;;;;;;;;;5032089;28;1550;-86
2021/12/25 13:07:11;;;;;;;;;;;;;;;;;;5033250;28;1673;-86
2021/12/25 13:09:41;;;;;;;;;;;;;;;;;;5033776;28;1039;-87
2021/12/25 13:12:19;;;;;;;;;;;;;;;;;;5033921;28;861;-85
2021/12/25 13:14:44;;;;;;;;;;;;;;;;;;5031915;28;1906;-85
2021/12/25 13:17:09;;;;;;;;;;;;;;;;;;5032162;28;1235;-84
2021/12/25 13:19:34;;;;;;;;;;;;;;;;;;5033376;28;983;-85
2021/12/25 13:21:59;;;;;;;;;;;;;;;;;;5033341;28;1685;-85
2021/12/25 13:24:24;;;;;;;;;;;;;;;;;;5033316;28;1669;-88
2021/12/25 13:26:51;;;;;;;;;;;;;;;;;;5031847;28;1729;-85
2021/12/25 13:29:16;;;;;;;;;;;;;;;;;;5035641;28;844;-85
2021/12/25 13:31:41;;;;;;;;;;;;;;;;;;5037131;28;1748;-83
2021/12/25 13:34:11;;;;;;;;;;;;;;;;;;5037189;28;1951;-85
2021/12/25 13:36:36;;;;;;;;;;;;;;;;;;5035870;28;1701;-87
2021/12/25 13:39:01;;;;;;;;;;;;;;;;;;5036406;28;1822;-84
2021/12/25 13:41:27;;;;;;;;;;;;;;;;;;5036140;28;1892;-86
2021/12/25 13:43:52;;;;;;;;;;;;;;;;;;5036125;28;1713;-86
2021/12/25 13:46:17;;;;;;;;;;;;;;;;;;5036492;28;1681;-85
2021/12/25 13:48:42;;;;;;;;;;;;;;;;;;5036797;28;2007;-85
2021/12/25 13:51:07;;;;;;;;;;;;;;;;;;5035152;28;1894;-86
2021/12/25 13:53:32;;;;;;;;;;;;;;;;;;5035290;28;1930;-84
2021/12/25 13:55:57;;;;;;;;;;;;;;;;;;5036748;28;1770;-84
2021/12/25 13:58:22;;;;;;;;;;;;;;;;;;5036010;28;1748;-85
2021/12/25 14:00:48;;;;;;;;;;;;;;;;;;5037063;28;992;-83
2021/12/25 14:03:13;;;;;;;;;;;;;;;;;;5036877;28;1638;-84
2021/12/25 14:05:38;;;;;;;;;;;;;;;;;;5035439;28;1833;-83
2021/12/25 14:08:03;;;;;;;;;;;;;;;;;;5035611;28;2054;-85
2021/12/25 14:10:28;;;;;;;;;;;;;;;;;;5034636;28;1694;-83
2021/12/25 14:12:53;;;;;;;;;;;;;;;;;;5035602;28;1902;-85
2021/12/25 14:15:18;;;;;;;;;;;;;;;;;;5036582;28;1272;-83
2021/12/25 14:17:43;;;;;;;;;;;;;;;;;;5036515;28;1558;-83
2021/12/25 14:20:09;;;;;;;;;;;;;;;;;;5037835;28;1003;-85
2021/12/25 14:22:34;;;;;;;;;;;;;;;;;;5038156;28;1720;-84
2021/12/25 14:24:59;;;;;;;;;;;;;;;;;;5038066;28;1996;-83
2021/12/25 14:27:24;;;;;;;;;;;;;;;;;;5034742;28;1952;-83
2021/12/25 14:29:49;;;;;;;;;;;;;;;;;;5035889;28;1538;-84
2021/12/25 14:32:14;;;;;;;;;;;;;;;;;;5036559;28;1957;-83
2021/12/25 14:34:39;;;;;;;;;;;;;;;;;;5035598;28;1947;-83
2021/12/25 14:37:04;;;;;;;;;;;;;;;;;;5035815;28;1600;-84
2021/12/25 14:39:29;;;;;;;;;;;;;;;;;;5035211;28;841;-83
2021/12/25 14:41:54;;;;;;;;;;;;;;;;;;5035475;28;1546;-84
2021/12/25 14:44:19;;;;;;;;;;;;;;;;;;5034150;28;1876;-83
2021/12/25 14:46:45;;;;;;;;;;;;;;;;;;5034717;28;1207;-83
2021/12/25 14:49:10;;;;;;;;;;;;;;;;;;5035588;28;825;-83
2021/12/25 14:51:37;;;;;;;;;;;;;;;;;;5035595;28;1971;-82
2021/12/25 14:54:02;;;;;;;;;;;;;;;;;;5034946;28;1886;-83
2021/12/25 14:56:27;;;;;;;;;;;;;;;;;;5035091;28;1894;-82
2021/12/25 14:58:52;;;;;;;;;;;;;;;;;;5035407;28;885;-83
2021/12/25 15:01:17;;;;;;;;;;;;;;;;;;5034216;28;1775;-84
2021/12/25 15:03:42;;;;;;;;;;;;;;;;;;5035212;28;1764;-83
2021/12/25 15:06:07;;;;;;;;;;;;;;;;;;5035136;28;1697;-82
2021/12/25 15:08:32;;;;;;;;;;;;;;;;;;5035118;28;2046;-84
2021/12/25 15:10:58;;;;;;;;;;;;;;;;;;5035101;28;1864;-84
2021/12/25 15:13:23;;;;;;;;;;;;;;;;;;5033841;28;1959;-84
2021/12/25 15:15:48;;;;;;;;;;;;;;;;;;5035008;28;1207;-84
2021/12/25 15:18:13;;;;;;;;;;;;;;;;;;5034923;28;1521;-85
2021/12/25 15:20:38;;;;;;;;;;;;;;;;;;5034115;28;1175;-83
2021/12/25 15:23:03;;;;;;;;;;;;;;;;;;5033817;28;1674;-85
2021/12/25 15:25:29;;;;;;;;;;;;;;;;;;5034831;28;1558;-86
2021/12/25 15:27:54;;;;;;;;;;;;;;;;;;5035012;28;844;-85
2021/12/25 15:30:19;;;;;;;;;;;;;;;;;;5025599;28;1936;-86
2021/12/25 15:32:44;;;;;;;;;;;;;;;;;;5034890;28;979;-85
2021/12/25 15:35:09;;;;;;;;;;;;;;;;;;5034712;28;1951;-87
2021/12/25 15:37:34;;;;;;;;;;;;;;;;;;5034758;28;1820;-88
2021/12/25 15:39:59;;;;;;;;;;;;;;;;;;5034856;28;923;-84
2021/12/25 15:42:25;;;;;;;;;;;;;;;;;;5035184;28;1023;-84
2021/12/25 15:44:51;;;;;;;;;;;;;;;;;;5034683;28;1300;-86
2021/12/25 15:47:16;;;;;;;;;;;;;;;;;;5033226;28;1757;-86
2021/12/25 15:49:41;;;;;;;;;;;;;;;;;;5033134;28;1797;-84
2021/12/25 15:52:06;;;;;;;;;;;;;;;;;;5033127;28;1218;-85
2021/12/25 15:54:31;;;;;;;;;;;;;;;;;;5050545;22;3744;-83
2021/12/25 15:56:58;;;;;;;;;;;;;;;;;;5075685;28;1431;-83
2021/12/25 15:59:24;;;;;;;;;;;;;;;;;;5077789;28;1063;-82
2021/12/25 16:01:49;;;;;;;;;;;;;;;;;;5077811;28;923;-83
2021/12/25 16:04:14;;;;;;;;;;;;;;;;;;5078547;28;796;-83
2021/12/25 16:06:39;;;;;;;;;;;;;;;;;;5076568;28;1299;-83
2021/12/25 16:09:04;;;;;;;;;;;;;;;;;;5076651;28;1293;-83
2021/12/25 16:11:29;;;;;;;;;;;;;;;;;;5076833;28;1375;-83
2021/12/25 16:13:54;;;;;;;;;;;;;;;;;;5076706;28;1909;-83
2021/12/25 16:16:20;;;;;;;;;;;;;;;;;;5076655;28;1306;-83
2021/12/25 16:18:49;;;;;;;;;;;;;;;;;;5076727;28;1334;-83
2021/12/25 16:21:14;;;;;;;;;;;;;;;;;;5076831;28;1293;-84
2021/12/25 16:23:39;;;;;;;;;;;;;;;;;;5078109;28;1054;-83
2021/12/25 16:26:04;;;;;;;;;;;;;;;;;;5077422;28;1298;-83
2021/12/25 16:28:30;;;;;;;;;;;;;;;;;;5076537;28;1171;-83
2021/12/25 16:30:56;;;;;;;;;;;;;;;;;;5076364;28;1218;-83
2021/12/25 16:33:21;;;;;;;;;;;;;;;;;;5074356;28;1924;-84
2021/12/25 16:35:46;;;;;;;;;;;;;;;;;;5068377;28;2010;-83
2021/12/25 16:38:11;;;;;;;;;;;;;;;;;;5077595;28;892;-84
2021/12/25 16:40:36;;;;;;;;;;;;;;;;;;5078529;28;1313;-83
2021/12/25 16:43:01;;;;;;;;;;;;;;;;;;5076446;28;1554;-82
2021/12/25 16:45:26;;;;;;;;;;;;;;;;;;5063622;28;1218;-83
2021/12/25 16:47:51;;;;;;;;;;;;;;;;;;5068930;28;1317;-83
2021/12/25 16:50:16;;;;;;;;;;;;;;;;;;5059415;28;1273;-82
2021/12/25 16:52:41;;;;;;;;;;;;;;;;;;5054855;28;1301;-83
2021/12/25 16:55:06;;;;;;;;;;;;;;;;;;5054820;28;1886;-82
2021/12/25 16:57:33;;;;;;;;;;;;;;;;;;5055915;28;1018;-83
2021/12/25 16:59:58;;;;;;;;;;;;;;;;;;5056446;28;1807;-83
2021/12/25 17:02:25;;;;;;;;;;;;;;;;;;5057629;28;1779;-84
2021/12/25 17:04:50;;;;;;;;;;;;;;;;;;5052475;28;1601;-84
2021/12/25 17:07:15;;;;;;;;;;;;;;;;;;5060203;28;1701;-85
2021/12/25 17:09:44;;;;;;;;;;;;;;;;;;5075442;28;1007;-83
